createdAt,value
2023-05-21T00:00:50.391Z,27.92
2023-05-21T00:03:17.466Z,23.70
2023-05-21T00:05:47.161Z,26.95
2023-05-21T00:08:14.479Z,24.48
2023-05-21T00:10:41.251Z,25.55
2023-05-21T00:13:10.168Z,29.00
2023-05-21T00:15:37.519Z,22.08
2023-05-21T00:18:04.632Z,34.58
2023-05-21T00:20:32.513Z,26.95
2023-05-21T00:23:00.276Z,22.20
2023-05-21T00:25:27.125Z,24.13
2023-05-21T00:27:54.745Z,24.42
2023-05-21T00:30:22.718Z,21.60
2023-05-21T00:32:49.599Z,20.88
2023-05-21T00:35:16.626Z,22.80
2023-05-21T00:37:43.495Z,23.02
2023-05-21T00:40:11.895Z,22.23
2023-05-21T00:42:39.355Z,27.30
2023-05-21T00:45:08.777Z,27.02
2023-05-21T00:47:35.769Z,26.13
2023-05-21T00:50:03.743Z,27.23
2023-05-21T00:52:30.569Z,25.80
2023-05-21T00:54:59.929Z,24.05
2023-05-21T00:57:27.309Z,24.67
2023-05-21T00:59:54.357Z,23.35
2023-05-21T01:02:25.109Z,24.58
2023-05-21T01:04:54.843Z,25.25
2023-05-21T01:07:22.286Z,22.42
2023-05-21T01:09:49.608Z,25.80
2023-05-21T01:12:20.969Z,22.83
2023-05-21T01:14:47.816Z,25.27
2023-05-21T01:17:14.887Z,25.02
2023-05-21T01:19:42.724Z,24.05
2023-05-21T01:22:10.099Z,27.10
2023-05-21T01:24:37.670Z,26.38
2023-05-21T01:27:07.813Z,26.15
2023-05-21T01:29:34.616Z,27.33
2023-05-21T01:32:04.710Z,25.27
2023-05-21T01:35:02.460Z,25.45
2023-05-21T01:37:38.373Z,25.40
2023-05-21T01:40:16.578Z,27.33
2023-05-21T01:42:44.306Z,20.42
2023-05-21T01:45:11.712Z,23.35
2023-05-21T01:47:39.512Z,24.38
2023-05-21T01:50:07.032Z,25.08
2023-05-21T01:52:36.358Z,28.67
2023-05-21T01:55:03.787Z,28.45
2023-05-21T01:57:32.030Z,24.25
2023-05-21T01:59:58.918Z,26.05
2023-05-21T02:02:25.869Z,24.27
2023-05-21T02:04:52.801Z,27.83
2023-05-21T02:07:20.024Z,25.60
2023-05-21T02:09:46.904Z,24.33
2023-05-21T02:12:13.802Z,26.77
2023-05-21T02:14:40.865Z,30.95
2023-05-21T02:17:08.270Z,24.48
2023-05-21T02:19:36.189Z,23.25
2023-05-21T02:22:03.457Z,25.00
2023-05-21T02:24:30.686Z,25.65
2023-05-21T02:27:01.509Z,24.25
2023-05-21T02:29:28.476Z,26.98
2023-05-21T02:31:55.700Z,24.42
2023-05-21T02:34:22.696Z,26.90
2023-05-21T02:36:52.394Z,27.42
2023-05-21T02:39:19.713Z,26.17
2023-05-21T02:41:48.138Z,31.10
2023-05-21T02:44:14.988Z,24.13
2023-05-21T02:46:41.842Z,28.08
2023-05-21T02:49:08.733Z,25.38
2023-05-21T02:51:35.520Z,23.95
2023-05-21T02:54:02.497Z,26.33
2023-05-21T02:56:29.409Z,26.58
2023-05-21T02:58:56.738Z,27.10
2023-05-21T03:01:23.667Z,23.45
2023-05-21T03:03:50.611Z,23.17
2023-05-21T03:06:17.741Z,24.88
2023-05-21T03:08:44.598Z,27.00
2023-05-21T03:11:11.398Z,30.58
2023-05-21T03:13:38.237Z,24.75
2023-05-21T03:16:05.499Z,22.77
2023-05-21T03:18:32.295Z,26.15
2023-05-21T03:20:59.276Z,26.48
2023-05-21T03:23:26.977Z,26.77
2023-05-21T03:25:54.324Z,25.17
2023-05-21T03:28:21.722Z,28.02
2023-05-21T03:30:50.718Z,25.95
2023-05-21T03:33:17.887Z,23.40
2023-05-21T03:35:44.816Z,24.45
2023-05-21T03:38:11.913Z,22.67
2023-05-21T03:40:38.712Z,24.58
2023-05-21T03:43:07.011Z,26.52
2023-05-21T03:45:35.818Z,24.23
2023-05-21T03:48:03.003Z,25.52
2023-05-21T03:50:29.819Z,23.60
2023-05-21T03:52:57.499Z,24.55
2023-05-21T03:55:24.752Z,21.98
2023-05-21T03:57:51.577Z,24.65
2023-05-21T04:00:18.729Z,20.40
2023-05-21T04:02:45.682Z,21.63
2023-05-21T04:05:12.514Z,21.25
2023-05-21T04:07:39.750Z,25.15
2023-05-21T04:10:07.410Z,21.35
2023-05-21T04:12:34.497Z,21.02
2023-05-21T04:15:02.723Z,19.65
2023-05-21T04:17:29.841Z,19.45
2023-05-21T04:19:56.786Z,22.20
2023-05-21T04:22:26.813Z,18.88
2023-05-21T04:24:55.085Z,21.25
2023-05-21T04:27:25.416Z,21.00
2023-05-21T04:29:54.849Z,15.52
2023-05-21T04:32:22.244Z,16.45
2023-05-21T04:34:49.052Z,16.42
2023-05-21T04:37:18.118Z,18.75
2023-05-21T04:39:45.165Z,23.20
2023-05-21T04:42:12.036Z,19.75
2023-05-21T04:44:44.461Z,19.98
2023-05-21T04:47:12.514Z,16.48
2023-05-21T04:49:39.277Z,17.08
2023-05-21T04:52:06.182Z,15.73
2023-05-21T04:54:33.127Z,17.67
2023-05-21T04:57:00.027Z,18.58
2023-05-21T04:59:27.276Z,16.85
2023-05-21T05:01:55.859Z,15.93
2023-05-21T05:04:22.657Z,14.07
2023-05-21T05:06:50.224Z,17.30
2023-05-21T05:09:17.101Z,13.88
2023-05-21T05:11:43.927Z,12.73
2023-05-21T05:14:10.784Z,12.88
2023-05-21T05:16:38.389Z,13.25
2023-05-21T05:19:05.347Z,12.30
2023-05-21T05:21:33.564Z,13.05
2023-05-21T05:24:00.943Z,14.30
2023-05-21T05:26:28.034Z,11.55
2023-05-21T05:28:54.863Z,15.40
2023-05-21T05:31:21.769Z,12.25
2023-05-21T05:33:48.777Z,12.05
2023-05-21T05:36:15.768Z,10.75
2023-05-21T05:38:42.624Z,15.90
2023-05-21T05:41:10.116Z,13.65
2023-05-21T05:43:37.073Z,15.40
2023-05-21T05:46:04.156Z,12.40
2023-05-21T05:48:32.822Z,9.75
2023-05-21T05:50:59.932Z,11.75
2023-05-21T05:53:26.817Z,16.55
2023-05-21T05:55:54.627Z,9.52
2023-05-21T05:58:21.474Z,11.75
2023-05-21T06:00:48.221Z,10.55
2023-05-21T06:03:15.079Z,11.43
2023-05-21T06:05:47.439Z,12.50
2023-05-21T06:08:15.530Z,9.50
2023-05-21T06:10:48.058Z,11.60
2023-05-21T06:21:19.333Z,9.68
2023-05-21T06:23:47.967Z,10.00
2023-05-21T06:26:19.495Z,9.50
2023-05-21T06:28:46.909Z,14.90
2023-05-21T06:31:15.200Z,10.63
2023-05-21T06:33:45.836Z,11.85
2023-05-21T06:36:12.912Z,12.95
2023-05-21T06:38:39.735Z,9.77
2023-05-21T06:41:09.239Z,11.57
2023-05-21T06:43:36.856Z,14.40
2023-05-21T06:46:03.861Z,13.02
2023-05-21T06:48:32.394Z,12.32
2023-05-21T06:50:59.500Z,11.45
2023-05-21T06:53:26.849Z,9.93
2023-05-21T06:55:55.480Z,11.65
2023-05-21T06:58:27.638Z,12.10
2023-05-21T07:00:54.566Z,10.32
2023-05-21T07:03:21.562Z,11.20
2023-05-21T07:05:56.642Z,11.60
2023-05-21T07:08:29.658Z,9.38
2023-05-21T07:10:56.568Z,12.88
2023-05-21T07:13:23.498Z,12.73
2023-05-21T07:15:50.626Z,9.90
2023-05-21T07:18:30.670Z,10.65
2023-05-21T07:21:02.724Z,12.20
2023-05-21T07:23:31.245Z,11.03
2023-05-21T07:26:14.130Z,10.90
2023-05-21T07:28:48.573Z,12.20
2023-05-21T07:31:25.617Z,11.85
2023-05-21T07:33:57.744Z,12.00
2023-05-21T07:36:30.997Z,12.80
2023-05-21T07:39:00.977Z,10.80
2023-05-21T07:44:13.336Z,10.18
2023-05-21T07:46:41.218Z,12.25
2023-05-21T07:49:11.835Z,10.82
2023-05-21T07:51:40.034Z,14.80
2023-05-21T07:54:11.029Z,12.05
2023-05-21T07:56:39.382Z,10.52
2023-05-21T07:59:08.339Z,14.82
2023-05-21T08:01:37.967Z,14.20
2023-05-21T08:04:11.283Z,12.75
2023-05-21T08:06:42.049Z,11.68
2023-05-21T08:09:10.358Z,11.23
2023-05-21T08:11:37.212Z,14.13
2023-05-21T08:14:04.205Z,14.73
2023-05-21T08:16:35.512Z,11.63
2023-05-21T08:19:03.799Z,11.23
2023-05-21T08:24:08.377Z,17.20
2023-05-21T08:26:41.830Z,14.23
2023-05-21T08:29:13.376Z,12.55
2023-05-21T08:31:43.751Z,12.50
2023-05-21T08:34:13.808Z,11.45
2023-05-21T08:36:46.369Z,14.55
2023-05-21T08:41:49.059Z,12.43
2023-05-21T08:44:21.202Z,12.30
2023-05-21T08:49:57.302Z,11.50
2023-05-21T08:52:24.219Z,12.88
2023-05-21T08:54:51.327Z,11.68
2023-05-21T08:57:20.374Z,9.70
2023-05-21T08:59:48.512Z,8.95
2023-05-21T09:02:18.384Z,10.73
2023-05-21T09:04:49.571Z,11.73
2023-05-21T09:07:17.179Z,11.05
2023-05-21T09:09:51.917Z,11.40
2023-05-21T09:12:19.249Z,9.80
2023-05-21T09:17:28.434Z,10.05
2023-05-21T09:20:18.920Z,11.63
2023-05-21T09:22:47.067Z,11.43
2023-05-21T09:25:15.908Z,9.88
2023-05-21T09:27:43.556Z,12.32
2023-05-21T09:30:14.649Z,10.35
2023-05-21T09:32:41.785Z,10.25
2023-05-21T09:35:15.970Z,11.35
2023-05-21T09:37:47.898Z,8.25
2023-05-21T09:40:18.986Z,10.93
2023-05-21T09:42:50.875Z,10.13
2023-05-21T09:45:21.563Z,11.97
2023-05-21T09:47:49.238Z,8.77
2023-05-21T09:50:28.056Z,7.93
2023-05-21T09:52:55.706Z,9.73
2023-05-21T09:55:23.218Z,10.63
2023-05-21T09:57:53.507Z,8.27
2023-05-21T10:00:27.571Z,8.50
2023-05-21T10:02:55.486Z,11.65
2023-05-21T10:05:23.521Z,7.93
2023-05-21T10:07:53.083Z,15.43
2023-05-21T10:10:20.929Z,11.57
2023-05-21T10:12:52.252Z,8.75
2023-05-21T10:15:22.479Z,7.70
2023-05-21T10:17:49.391Z,7.25
2023-05-21T10:20:20.576Z,7.90
2023-05-21T10:22:49.934Z,12.02
2023-05-21T10:25:19.728Z,8.55
2023-05-21T10:27:47.789Z,11.75
2023-05-21T10:30:15.152Z,11.38
2023-05-21T10:32:43.413Z,10.13
2023-05-21T10:35:12.368Z,9.32
2023-05-21T10:37:41.791Z,10.30
2023-05-21T10:40:09.348Z,9.45
2023-05-21T10:42:45.317Z,10.45
2023-05-21T10:45:40.188Z,7.88
2023-05-21T10:48:50.166Z,11.15
2023-05-21T10:51:22.078Z,7.85
2023-05-21T10:53:59.250Z,8.18
2023-05-21T10:56:36.193Z,7.90
2023-05-21T10:59:24.600Z,10.25
2023-05-21T11:01:57.001Z,11.15
2023-05-21T11:04:40.756Z,8.23
2023-05-21T11:07:07.966Z,12.35
2023-05-21T11:09:36.743Z,8.75
2023-05-21T11:12:04.759Z,12.85
2023-05-21T11:14:42.278Z,10.55
2023-05-21T11:17:14.389Z,15.30
2023-05-21T11:19:43.208Z,10.30
2023-05-21T11:22:11.408Z,8.63
2023-05-21T11:24:40.029Z,13.50
2023-05-21T11:27:07.153Z,9.30
2023-05-21T11:29:40.984Z,7.10
2023-05-21T11:32:09.858Z,9.05
2023-05-21T11:34:43.896Z,8.15
2023-05-21T11:37:17.270Z,7.75
2023-05-21T11:39:47.786Z,7.63
2023-05-21T11:42:38.969Z,12.70
2023-05-21T11:45:06.538Z,9.10
2023-05-21T11:47:33.566Z,10.73
2023-05-21T11:50:06.021Z,10.85
2023-05-21T11:52:36.034Z,10.25
2023-05-21T11:55:03.244Z,8.15
2023-05-21T11:57:33.491Z,11.68
2023-05-21T12:00:04.444Z,9.68
2023-05-21T12:02:32.314Z,8.77
2023-05-21T12:05:00.481Z,10.32
2023-05-21T12:07:31.365Z,8.50
2023-05-21T12:09:59.851Z,9.95
2023-05-21T12:12:38.572Z,9.52
2023-05-21T12:15:14.011Z,8.18
2023-05-21T12:17:41.289Z,10.55
2023-05-21T12:20:11.051Z,9.00
2023-05-21T12:22:42.576Z,11.15
2023-05-21T12:25:10.262Z,8.32
2023-05-21T12:27:37.288Z,10.82
2023-05-21T12:30:04.426Z,8.25
2023-05-21T12:32:31.700Z,9.25
2023-05-21T12:35:00.280Z,15.13
2023-05-21T12:37:31.534Z,9.10
2023-05-21T12:40:02.124Z,10.55
2023-05-21T12:42:30.811Z,8.10
2023-05-21T12:44:57.974Z,12.15
2023-05-21T12:47:27.424Z,8.80
2023-05-21T12:50:01.436Z,10.43
2023-05-21T12:52:28.394Z,9.13
2023-05-21T12:54:56.690Z,11.20
2023-05-21T12:57:26.259Z,11.65
2023-05-21T13:00:00.022Z,9.70
2023-05-21T13:02:27.795Z,7.50
2023-05-21T13:05:00.167Z,9.88
2023-05-21T13:07:28.486Z,11.52
2023-05-21T13:09:55.925Z,7.93
2023-05-21T13:12:25.360Z,7.40
2023-05-21T13:14:54.588Z,8.95
2023-05-21T13:17:24.429Z,7.65
2023-05-21T13:20:12.332Z,7.90
2023-05-21T13:22:47.074Z,9.45
2023-05-21T13:25:17.803Z,7.07
2023-05-21T13:27:44.917Z,12.30
2023-05-21T13:30:12.345Z,9.02
2023-05-21T13:32:40.280Z,6.20
2023-05-21T13:35:07.991Z,9.07
2023-05-21T13:37:37.688Z,8.45
2023-05-21T13:40:11.868Z,10.27
2023-05-21T13:42:39.310Z,6.55
2023-05-21T13:45:12.337Z,9.18
2023-05-21T13:47:40.648Z,11.57
2023-05-21T13:50:08.889Z,10.50
2023-05-21T13:52:36.859Z,9.07
2023-05-21T13:55:07.113Z,9.82
2023-05-21T13:57:34.794Z,8.57
2023-05-21T14:00:04.703Z,7.70
2023-05-21T14:02:31.651Z,9.90
2023-05-21T14:05:03.285Z,10.68
2023-05-21T14:07:31.373Z,11.48
2023-05-21T14:09:59.038Z,8.80
2023-05-21T14:12:26.866Z,6.95
2023-05-21T14:14:54.816Z,7.55
2023-05-21T14:17:23.285Z,6.22
2023-05-21T14:19:50.965Z,6.88
2023-05-21T14:22:20.201Z,6.68
2023-05-21T14:24:47.111Z,8.40
2023-05-21T14:27:17.410Z,7.35
2023-05-21T14:29:44.548Z,7.43
2023-05-21T14:32:12.911Z,8.77
2023-05-21T14:34:41.600Z,7.35
2023-05-21T14:37:08.718Z,8.00
2023-05-21T14:39:35.579Z,8.35
2023-05-21T14:42:06.333Z,7.63
2023-05-21T14:44:37.701Z,9.93
2023-05-21T14:47:07.554Z,8.15
2023-05-21T14:49:34.368Z,7.90
2023-05-21T14:52:02.132Z,9.55
2023-05-21T14:54:31.167Z,15.27
2023-05-21T14:56:59.363Z,6.88
2023-05-21T14:59:27.469Z,11.25
2023-05-21T15:01:58.686Z,8.25
2023-05-21T15:04:26.478Z,8.32
2023-05-21T15:06:53.509Z,9.30
2023-05-21T15:09:20.465Z,10.73
2023-05-21T15:11:52.574Z,8.80
2023-05-21T15:14:20.337Z,11.85
2023-05-21T15:16:47.546Z,9.93
2023-05-21T15:19:14.486Z,11.48
2023-05-21T15:21:41.468Z,10.65
2023-05-21T15:24:11.295Z,8.52
2023-05-21T15:26:38.444Z,18.90
2023-05-21T15:29:05.471Z,9.32
2023-05-21T15:31:33.358Z,10.02
2023-05-21T15:34:06.988Z,8.43
2023-05-21T15:36:35.243Z,9.82
2023-05-21T15:39:06.684Z,10.55
2023-05-21T15:41:40.745Z,8.02
2023-05-21T15:44:09.011Z,8.95
2023-05-21T15:46:36.267Z,8.48
2023-05-21T15:49:05.053Z,8.20
2023-05-21T15:51:35.880Z,9.52
2023-05-21T15:54:05.469Z,9.27
2023-05-21T15:56:34.485Z,9.00
2023-05-21T15:59:06.545Z,8.57
2023-05-21T16:01:35.545Z,9.77
2023-05-21T16:04:05.348Z,7.60
2023-05-21T16:06:34.523Z,7.22
2023-05-21T16:09:01.495Z,8.32
2023-05-21T16:11:29.787Z,7.70
2023-05-21T16:14:00.222Z,7.55
2023-05-21T16:16:28.270Z,7.50
2023-05-21T16:18:55.266Z,7.20
2023-05-21T16:21:24.467Z,8.45
2023-05-21T16:23:51.863Z,11.10
2023-05-21T16:26:19.948Z,7.43
2023-05-21T16:28:47.088Z,8.45
2023-05-21T16:31:14.513Z,8.70
2023-05-21T16:33:43.190Z,11.88
2023-05-21T16:36:10.036Z,9.13
2023-05-21T16:38:38.780Z,7.20
2023-05-21T16:41:05.976Z,6.53
2023-05-21T16:43:34.073Z,7.97
2023-05-21T16:46:01.106Z,8.35
2023-05-21T16:48:29.591Z,8.75
2023-05-21T16:50:56.909Z,7.03
2023-05-21T16:53:23.687Z,9.38
2023-05-21T16:55:50.623Z,10.73
2023-05-21T16:58:19.211Z,9.60
2023-05-21T17:00:50.018Z,10.52
2023-05-21T17:03:18.368Z,10.98
2023-05-21T17:05:47.189Z,10.13
2023-05-21T17:08:14.254Z,9.23
2023-05-21T17:10:42.953Z,12.00
2023-05-21T17:13:21.343Z,9.88
2023-05-21T17:15:54.884Z,9.18
2023-05-21T17:18:21.762Z,11.02
2023-05-21T17:20:49.039Z,6.72
2023-05-21T17:23:18.228Z,10.00
2023-05-21T17:25:45.746Z,7.78
2023-05-21T17:28:12.610Z,8.80
2023-05-21T17:30:44.139Z,7.55
2023-05-21T17:33:15.004Z,9.10
2023-05-21T17:35:43.641Z,8.23
2023-05-21T17:38:12.892Z,8.40
2023-05-21T17:40:41.710Z,12.70
2023-05-21T17:43:11.132Z,6.90
2023-05-21T17:45:39.052Z,8.32
2023-05-21T17:48:06.684Z,9.82
2023-05-21T17:50:36.590Z,10.93
2023-05-21T17:53:03.852Z,10.85
2023-05-21T17:55:30.683Z,18.95
2023-05-21T17:58:02.036Z,18.17
2023-05-21T18:00:32.217Z,10.27
2023-05-21T18:02:59.617Z,14.02
2023-05-21T18:10:58.434Z,11.05
2023-05-21T18:13:29.170Z,10.77
2023-05-21T18:16:08.410Z,8.13
2023-05-21T18:18:39.848Z,10.60
2023-05-21T18:35:42.683Z,8.75
2023-05-21T18:38:12.950Z,9.98
2023-05-21T18:40:51.991Z,12.02
2023-05-21T18:43:26.088Z,9.30
2023-05-21T18:48:43.422Z,8.68
2023-05-21T18:51:20.038Z,8.82
2023-05-21T18:53:52.135Z,12.60
2023-05-21T18:56:20.232Z,10.75
2023-05-21T18:58:47.999Z,10.95
2023-05-21T19:01:20.709Z,11.27
2023-05-21T19:03:47.516Z,11.20
2023-05-21T19:06:16.438Z,10.30
2023-05-21T19:14:16.804Z,11.15
2023-05-21T19:17:15.773Z,9.35
2023-05-21T19:22:27.376Z,14.30
2023-05-21T19:24:55.763Z,9.43
2023-05-21T19:27:24.040Z,12.75
2023-05-21T19:29:59.521Z,11.20
2023-05-21T19:32:30.900Z,13.52
2023-05-21T19:35:02.236Z,9.07
2023-05-21T19:40:17.760Z,11.18
2023-05-21T19:42:48.208Z,10.63
2023-05-21T19:45:23.783Z,10.60
2023-05-21T19:48:03.090Z,13.85
2023-05-21T19:50:31.872Z,12.75
2023-05-21T19:53:02.125Z,12.38
2023-05-21T19:55:31.791Z,11.52
2023-05-21T19:58:00.245Z,13.02
2023-05-21T20:00:33.809Z,13.82
2023-05-21T20:03:06.699Z,13.68
2023-05-21T20:08:04.285Z,11.65
2023-05-21T20:10:35.786Z,10.88
2023-05-21T20:13:03.198Z,9.98
2023-05-21T20:15:30.286Z,14.07
2023-05-21T20:17:59.176Z,12.93
2023-05-21T20:20:26.784Z,11.38
2023-05-21T20:22:54.306Z,10.93
2023-05-21T20:25:21.731Z,13.63
2023-05-21T20:27:48.546Z,10.70
2023-05-21T20:30:15.752Z,12.70
2023-05-21T20:32:42.621Z,14.60
2023-05-21T20:35:09.529Z,11.93
2023-05-21T20:37:36.926Z,12.05
2023-05-21T20:40:05.790Z,11.57
2023-05-21T20:42:37.570Z,11.55
2023-05-21T20:45:04.642Z,11.75
2023-05-21T20:47:31.583Z,13.70
2023-05-21T20:50:05.944Z,10.88
2023-05-21T20:52:32.860Z,12.00
2023-05-21T20:55:00.960Z,10.40
2023-05-21T20:57:28.019Z,12.27
2023-05-21T20:59:54.888Z,11.52
2023-05-21T21:02:23.004Z,10.75
2023-05-21T21:04:50.718Z,13.63
2023-05-21T21:07:21.009Z,15.05
2023-05-21T21:09:48.658Z,14.27
2023-05-21T21:12:26.195Z,12.73
2023-05-21T21:14:53.913Z,10.55
2023-05-21T21:17:21.469Z,13.82
2023-05-21T21:19:49.799Z,22.10
2023-05-21T21:22:17.075Z,18.13
2023-05-21T21:24:45.676Z,13.07
2023-05-21T21:27:12.645Z,16.30
2023-05-21T21:29:40.031Z,15.15
2023-05-21T21:32:10.072Z,15.05
2023-05-21T21:34:37.128Z,13.40
2023-05-21T21:37:04.426Z,12.02
2023-05-21T21:39:31.247Z,13.05
2023-05-21T21:41:59.164Z,12.23
2023-05-21T21:44:26.124Z,11.35
2023-05-21T21:46:52.907Z,13.40
2023-05-21T21:49:19.835Z,11.80
2023-05-21T21:51:46.716Z,13.90
2023-05-21T21:54:13.505Z,9.48
2023-05-21T21:56:40.637Z,10.48
2023-05-21T21:59:07.519Z,10.75
2023-05-21T22:01:35.940Z,12.68
2023-05-21T22:04:03.297Z,11.63
2023-05-21T22:06:30.203Z,13.45
2023-05-21T22:08:57.070Z,13.27
2023-05-21T22:11:23.852Z,12.02
2023-05-21T22:13:50.788Z,12.75
2023-05-21T22:16:17.588Z,13.65
2023-05-21T22:18:45.069Z,13.27
2023-05-21T22:21:14.393Z,11.63
2023-05-21T22:23:42.391Z,12.20
2023-05-21T22:26:09.673Z,14.18
2023-05-21T22:28:36.780Z,12.70
2023-05-21T22:31:03.718Z,10.13
2023-05-21T22:33:30.736Z,10.52
2023-05-21T22:35:58.252Z,10.75
2023-05-21T22:38:25.813Z,10.93
2023-05-21T22:40:52.749Z,14.00
2023-05-21T22:43:21.126Z,12.05
2023-05-21T22:45:47.937Z,10.00
2023-05-21T22:48:14.808Z,14.40
2023-05-21T22:50:41.703Z,12.57
2023-05-21T22:53:09.208Z,10.73
2023-05-21T22:55:36.259Z,15.60
2023-05-21T22:58:03.125Z,13.70
2023-05-21T23:00:30.271Z,15.90
2023-05-21T23:02:57.223Z,14.10
2023-05-21T23:05:24.397Z,14.40
2023-05-21T23:07:51.483Z,15.73
2023-05-21T23:10:18.694Z,14.30
2023-05-21T23:12:45.701Z,12.63
2023-05-21T23:15:12.932Z,13.50
2023-05-21T23:17:39.835Z,12.57
2023-05-21T23:20:08.782Z,12.23
2023-05-21T23:22:36.910Z,12.15
2023-05-21T23:25:04.383Z,13.80
2023-05-21T23:27:31.295Z,12.25
2023-05-21T23:29:58.145Z,10.48
2023-05-21T23:32:25.858Z,13.48
2023-05-21T23:34:53.195Z,10.30
2023-05-21T23:37:19.958Z,10.65
2023-05-21T23:39:49.674Z,12.25
2023-05-21T23:42:17.173Z,10.95
2023-05-21T23:44:44.159Z,12.93
2023-05-21T23:47:11.109Z,11.85
2023-05-21T23:49:37.953Z,14.85
2023-05-21T23:52:05.852Z,14.10
2023-05-21T23:54:33.280Z,14.63
2023-05-21T23:57:00.761Z,12.98
2023-05-21T23:59:27.914Z,11.35
